createdAt,value
2018-11-02T00:01:28.837Z,11.63
2018-11-02T00:03:57.615Z,11.55
2018-11-02T00:06:26.415Z,12.45
2018-11-02T00:08:55.229Z,12.63
2018-11-02T00:11:24.005Z,10.60
2018-11-02T00:13:53.047Z,10.50
2018-11-02T00:16:22.361Z,9.28
2018-11-02T00:18:51.115Z,9.63
2018-11-02T00:21:19.765Z,9.68
2018-11-02T00:23:48.321Z,9.28
2018-11-02T00:26:16.899Z,9.45
2018-11-02T00:28:45.434Z,10.03
2018-11-02T00:31:14.046Z,10.30
2018-11-02T00:33:42.646Z,10.72
2018-11-02T00:36:11.186Z,10.00
2018-11-02T00:38:39.843Z,9.90
2018-11-02T00:41:08.428Z,9.43
2018-11-02T00:43:37.015Z,11.20
2018-11-02T00:46:06.224Z,11.03
2018-11-02T00:48:34.834Z,10.13
2018-11-02T00:51:03.350Z,10.15
2018-11-02T00:53:31.956Z,11.30
2018-11-02T00:56:00.504Z,11.28
2018-11-02T00:58:29.051Z,10.13
2018-11-02T01:00:57.794Z,10.75
2018-11-02T01:03:26.455Z,9.88
2018-11-02T01:05:55.123Z,11.05
2018-11-02T01:08:23.644Z,11.05
2018-11-02T01:10:52.675Z,10.60
2018-11-02T01:13:21.593Z,10.43
2018-11-02T01:15:50.211Z,10.50
2018-11-02T01:18:18.804Z,11.45
2018-11-02T01:20:47.374Z,10.40
2018-11-02T01:23:16.011Z,10.58
2018-11-02T01:25:44.670Z,9.50
2018-11-02T01:28:13.451Z,10.55
2018-11-02T01:30:41.978Z,10.20
2018-11-02T01:33:10.523Z,10.75
2018-11-02T01:35:39.094Z,10.72
2018-11-02T01:38:08.182Z,10.70
2018-11-02T01:40:36.984Z,10.85
2018-11-02T01:43:06.357Z,9.63
2018-11-02T01:45:34.946Z,10.20
2018-11-02T01:48:03.611Z,10.60
2018-11-02T01:50:32.147Z,11.10
2018-11-02T01:53:00.653Z,10.78
2018-11-02T01:55:29.288Z,11.40
2018-11-02T01:57:57.736Z,10.05
2018-11-02T02:00:26.193Z,10.20
2018-11-02T02:02:54.733Z,10.80
2018-11-02T02:05:23.304Z,11.30
2018-11-02T02:07:51.874Z,12.40
2018-11-02T02:10:20.455Z,11.45
2018-11-02T02:12:49.029Z,10.48
2018-11-02T02:15:17.590Z,10.58
2018-11-02T02:17:46.115Z,11.08
2018-11-02T02:20:14.718Z,10.65
2018-11-02T02:22:43.213Z,11.60
2018-11-02T02:25:11.777Z,11.38
2018-11-02T02:27:40.293Z,9.85
2018-11-02T02:30:12.239Z,10.15
2018-11-02T02:32:40.750Z,10.63
2018-11-02T02:35:10.127Z,10.48
2018-11-02T02:37:39.602Z,9.55
2018-11-02T02:40:09.858Z,10.72
2018-11-02T02:42:38.574Z,9.90
2018-11-02T02:45:07.655Z,9.93
2018-11-02T02:47:36.206Z,10.63
2018-11-02T02:50:06.325Z,10.55
2018-11-02T02:52:34.799Z,9.73
2018-11-02T02:55:03.364Z,10.85
2018-11-02T02:57:31.841Z,9.88
2018-11-02T03:00:00.337Z,10.48
2018-11-02T03:02:28.827Z,11.03
2018-11-02T03:04:57.317Z,10.75
2018-11-02T03:07:25.829Z,10.15
2018-11-02T03:09:54.365Z,10.50
2018-11-02T03:12:22.933Z,10.78
2018-11-02T03:14:51.512Z,10.43
2018-11-02T03:17:19.977Z,9.28
2018-11-02T03:19:48.519Z,9.20
2018-11-02T03:22:17.075Z,10.55
2018-11-02T03:24:45.601Z,9.93
2018-11-02T03:27:14.114Z,9.80
2018-11-02T03:29:42.624Z,10.05
2018-11-02T03:32:11.251Z,9.40
2018-11-02T03:34:39.734Z,8.83
2018-11-02T03:37:08.231Z,9.85
2018-11-02T03:39:36.717Z,9.30
2018-11-02T03:42:06.132Z,9.93
2018-11-02T03:44:34.678Z,9.58
2018-11-02T03:47:03.269Z,9.60
2018-11-02T03:49:31.830Z,9.98
2018-11-02T03:52:00.293Z,9.00
2018-11-02T03:54:28.849Z,10.75
2018-11-02T03:56:57.851Z,9.53
2018-11-02T03:59:26.083Z,9.85
2018-11-02T04:01:54.632Z,9.70
2018-11-02T04:04:23.115Z,10.88
2018-11-02T04:06:51.625Z,10.03
2018-11-02T04:09:20.175Z,10.23
2018-11-02T04:11:49.114Z,9.58
2018-11-02T04:14:17.648Z,10.13
2018-11-02T04:16:46.226Z,9.03
2018-11-02T04:19:14.823Z,9.78
2018-11-02T04:21:47.523Z,10.35
2018-11-02T04:24:16.041Z,8.70
2018-11-02T04:26:44.584Z,8.70
2018-11-02T04:29:14.047Z,8.68
2018-11-02T04:31:43.385Z,10.05
2018-11-02T04:34:12.402Z,8.05
2018-11-02T04:36:40.846Z,9.35
2018-11-02T04:39:11.663Z,6.15
2018-11-02T04:41:40.234Z,6.85
2018-11-02T04:44:09.767Z,7.03
2018-11-02T04:46:38.664Z,7.45
2018-11-02T04:49:08.521Z,6.60
2018-11-02T04:51:37.172Z,7.25
2018-11-02T04:54:05.936Z,7.53
2018-11-02T04:56:34.476Z,6.47
2018-11-02T04:59:02.971Z,5.72
2018-11-02T05:01:31.481Z,5.58
2018-11-02T05:03:59.971Z,7.20
2018-11-02T05:06:28.945Z,6.62
2018-11-02T05:08:57.410Z,6.45
2018-11-02T05:11:26.897Z,7.78
2018-11-02T05:13:55.377Z,5.97
2018-11-02T05:16:23.902Z,7.08
2018-11-02T05:18:52.431Z,5.58
2018-11-02T05:21:20.936Z,5.92
2018-11-02T05:23:49.348Z,5.30
2018-11-02T05:26:17.853Z,5.75
2018-11-02T05:28:46.342Z,5.20
2018-11-02T05:31:15.048Z,5.50
2018-11-02T05:33:43.676Z,4.97
2018-11-02T05:36:12.134Z,5.85
2018-11-02T05:38:40.553Z,5.80
2018-11-02T05:41:09.086Z,5.40
2018-11-02T05:43:37.569Z,6.47
2018-11-02T05:46:06.187Z,5.47
2018-11-02T05:48:34.775Z,7.53
2018-11-02T05:51:03.326Z,6.50
2018-11-02T05:53:31.813Z,6.72
2018-11-02T05:56:00.271Z,6.15
2018-11-02T05:58:28.733Z,5.50
2018-11-02T06:00:57.201Z,5.85
2018-11-02T06:03:26.123Z,5.45
2018-11-02T06:05:54.640Z,5.17
2018-11-02T06:08:23.242Z,5.85
2018-11-02T06:10:51.686Z,6.00
2018-11-02T06:13:20.450Z,7.17
2018-11-02T06:15:48.906Z,6.72
2018-11-02T06:18:17.657Z,5.50
2018-11-02T06:20:46.172Z,5.60
2018-11-02T06:23:14.885Z,6.00
2018-11-02T06:25:43.469Z,6.45
2018-11-02T06:28:12.010Z,5.95
2018-11-02T06:30:40.610Z,6.10
2018-11-02T06:33:09.074Z,5.75
2018-11-02T06:35:37.805Z,6.55
2018-11-02T06:38:06.394Z,6.12
2018-11-02T06:40:34.978Z,6.00
2018-11-02T06:43:03.513Z,5.40
2018-11-02T06:45:32.027Z,5.80
2018-11-02T06:48:00.595Z,6.97
2018-11-02T06:50:29.164Z,6.58
2018-11-02T06:52:57.761Z,7.60
2018-11-02T06:55:26.293Z,5.85
2018-11-02T06:57:55.111Z,5.40
2018-11-02T07:00:23.742Z,5.72
2018-11-02T07:02:52.235Z,6.33
2018-11-02T07:05:21.161Z,6.87
2018-11-02T07:07:49.808Z,6.87
2018-11-02T07:10:18.253Z,6.62
2018-11-02T07:12:46.842Z,7.00
2018-11-02T07:15:15.320Z,7.60
2018-11-02T07:17:43.831Z,7.50
2018-11-02T07:20:12.335Z,6.33
2018-11-02T07:22:40.757Z,7.67
2018-11-02T07:25:09.400Z,7.78
2018-11-02T07:27:37.881Z,7.10
2018-11-02T07:30:08.042Z,8.70
2018-11-02T07:32:36.575Z,8.45
2018-11-02T07:35:05.941Z,8.00
2018-11-02T07:37:34.485Z,7.83
2018-11-02T07:40:03.324Z,8.93
2018-11-02T07:42:31.867Z,9.75
2018-11-02T07:45:00.488Z,9.50
2018-11-02T07:47:29.219Z,9.03
2018-11-02T07:49:57.736Z,9.68
2018-11-02T07:52:26.339Z,11.20
2018-11-02T07:54:54.901Z,9.18
2018-11-02T07:57:23.421Z,9.10
2018-11-02T07:59:52.045Z,8.30
2018-11-02T08:02:20.563Z,9.45
2018-11-02T08:04:49.183Z,10.23
2018-11-02T08:07:17.766Z,10.40
2018-11-02T08:09:46.346Z,11.38
2018-11-02T08:12:14.939Z,10.68
2018-11-02T08:14:43.672Z,10.38
2018-11-02T08:17:12.293Z,9.90
2018-11-02T08:19:40.932Z,11.33
2018-11-02T08:22:09.435Z,10.98
2018-11-02T08:24:37.942Z,10.25
2018-11-02T08:27:07.004Z,11.10
2018-11-02T08:29:35.666Z,9.63
2018-11-02T08:32:04.201Z,10.60
2018-11-02T08:34:33.410Z,11.28
2018-11-02T08:37:02.155Z,10.28
2018-11-02T08:39:30.717Z,10.18
2018-11-02T08:41:59.450Z,10.05
2018-11-02T08:44:27.950Z,9.98
2018-11-02T08:46:56.466Z,9.70
2018-11-02T08:49:24.952Z,11.20
2018-11-02T08:51:53.566Z,10.85
2018-11-02T08:54:22.111Z,10.75
2018-11-02T08:56:50.640Z,9.93
2018-11-02T08:59:19.261Z,10.50
2018-11-02T09:01:47.985Z,9.55
2018-11-02T09:04:16.463Z,9.05
2018-11-02T09:06:45.013Z,9.55
2018-11-02T09:09:13.787Z,9.45
2018-11-02T09:11:42.351Z,9.65
2018-11-02T09:14:10.945Z,9.47
2018-11-02T09:16:39.630Z,9.43
2018-11-02T09:19:08.502Z,10.88
2018-11-02T09:21:37.456Z,9.28
2018-11-02T09:24:06.587Z,8.73
2018-11-02T09:26:35.099Z,10.10
2018-11-02T09:29:05.669Z,8.98
2018-11-02T09:31:34.206Z,9.78
2018-11-02T09:34:02.746Z,9.93
2018-11-02T09:36:32.381Z,9.30
2018-11-02T09:39:02.315Z,8.80
2018-11-02T09:41:30.919Z,9.70
2018-11-02T09:44:01.522Z,9.50
2018-11-02T09:46:30.062Z,9.87
2018-11-02T09:48:58.600Z,9.07
2018-11-02T09:51:28.579Z,10.33
2018-11-02T09:53:57.178Z,11.17
2018-11-02T09:56:25.707Z,10.43
2018-11-02T09:58:54.213Z,9.90
2018-11-02T10:01:22.771Z,9.00
2018-11-02T10:03:51.369Z,9.20
2018-11-02T10:06:19.848Z,7.80
2018-11-02T10:08:48.489Z,9.13
2018-11-02T10:11:17.041Z,7.73
2018-11-02T10:13:45.671Z,7.27
2018-11-02T10:16:14.281Z,9.70
2018-11-02T10:18:42.877Z,9.10
2018-11-02T10:21:11.418Z,8.30
2018-11-02T10:23:39.967Z,9.73
2018-11-02T10:26:08.681Z,9.23
2018-11-02T10:28:37.326Z,10.27
2018-11-02T10:31:06.273Z,10.57
2018-11-02T10:33:34.829Z,10.10
2018-11-02T10:36:04.212Z,9.77
2018-11-02T10:38:32.762Z,10.03
2018-11-02T10:41:01.348Z,9.17
2018-11-02T10:43:31.106Z,10.10
2018-11-02T10:46:01.020Z,9.13
2018-11-02T10:48:30.238Z,8.20
2018-11-02T10:50:58.991Z,8.50
2018-11-02T10:53:27.469Z,6.93
2018-11-02T10:55:55.973Z,6.50
2018-11-02T10:58:24.516Z,6.17
2018-11-02T11:00:58.426Z,7.07
2018-11-02T11:03:26.821Z,6.87
2018-11-02T11:05:55.415Z,6.93
2018-11-02T11:08:23.990Z,8.27
2018-11-02T11:10:52.738Z,8.37
2018-11-02T11:13:21.841Z,8.17
2018-11-02T11:15:50.315Z,7.70
2018-11-02T11:18:18.806Z,7.47
2018-11-02T11:20:47.397Z,8.23
2018-11-02T11:23:16.033Z,8.37
2018-11-02T11:25:44.701Z,6.80
2018-11-02T11:28:13.186Z,6.90
2018-11-02T11:30:42.185Z,8.07
2018-11-02T11:33:10.726Z,6.60
2018-11-02T11:35:39.237Z,6.30
2018-11-02T11:38:07.892Z,6.50
2018-11-02T11:40:36.462Z,6.00
2018-11-02T11:43:05.304Z,5.07
2018-11-02T11:45:33.861Z,5.63
2018-11-02T11:48:02.335Z,5.73
2018-11-02T11:50:30.974Z,6.00
2018-11-02T11:52:59.441Z,5.30
2018-11-02T11:55:27.999Z,5.10
2018-11-02T11:57:56.691Z,5.53
2018-11-02T12:00:25.238Z,5.70
2018-11-02T12:02:53.942Z,5.00
2018-11-02T12:05:23.526Z,4.80
2018-11-02T12:07:52.138Z,5.30
2018-11-02T12:10:22.953Z,6.33
2018-11-02T12:12:51.733Z,5.33
2018-11-02T12:15:21.521Z,5.50
2018-11-02T12:17:50.799Z,4.70
2018-11-02T12:20:23.804Z,4.60
2018-11-02T12:22:53.733Z,4.77
2018-11-02T12:25:22.321Z,3.80
2018-11-02T12:27:50.958Z,4.90
2018-11-02T12:30:19.769Z,3.70
2018-11-02T12:32:48.401Z,6.30
2018-11-02T12:35:17.876Z,3.87
2018-11-02T12:37:46.360Z,3.77
2018-11-02T12:40:20.785Z,4.67
2018-11-02T12:42:50.311Z,4.07
2018-11-02T12:45:19.846Z,4.17
2018-11-02T12:47:48.804Z,4.33
2018-11-02T12:50:20.018Z,4.23
2018-11-02T12:52:49.419Z,5.20
2018-11-02T12:55:18.436Z,4.50
2018-11-02T12:57:46.985Z,4.97
2018-11-02T13:00:18.057Z,4.70
2018-11-02T13:02:47.154Z,4.20
2018-11-02T13:05:15.923Z,4.20
2018-11-02T13:07:44.469Z,4.40
2018-11-02T13:10:14.589Z,3.93
2018-11-02T13:12:43.445Z,3.90
2018-11-02T13:15:13.565Z,4.33
2018-11-02T13:17:43.011Z,3.67
2018-11-02T13:20:12.276Z,3.53
2018-11-02T13:22:41.509Z,3.70
2018-11-02T13:25:15.204Z,3.77
2018-11-02T13:27:44.227Z,3.70
2018-11-02T13:30:12.817Z,3.77
2018-11-02T13:32:41.253Z,4.60
2018-11-02T13:35:12.229Z,3.73
2018-11-02T13:37:41.545Z,3.70
2018-11-02T13:40:11.406Z,3.90
2018-11-02T13:42:40.476Z,3.97
2018-11-02T13:45:10.754Z,4.00
2018-11-02T13:47:39.632Z,3.37
2018-11-02T13:50:08.534Z,2.97
2018-11-02T13:52:37.008Z,2.97
2018-11-02T13:55:06.755Z,2.73
2018-11-02T13:57:35.217Z,3.23
2018-11-02T14:00:04.050Z,3.00
2018-11-02T14:02:32.525Z,3.30
2018-11-02T14:05:01.159Z,3.80
2018-11-02T14:07:29.686Z,3.37
2018-11-02T14:09:58.230Z,3.20
2018-11-02T14:12:26.769Z,3.53
2018-11-02T14:14:55.243Z,3.33
2018-11-02T14:17:23.804Z,3.50
2018-11-02T14:19:52.297Z,3.10
2018-11-02T14:22:21.054Z,3.30
2018-11-02T14:24:54.023Z,3.27
2018-11-02T14:27:22.875Z,4.53
2018-11-02T14:29:51.474Z,3.27
2018-11-02T14:32:19.995Z,2.80
2018-11-02T14:34:48.558Z,3.23
2018-11-02T14:37:17.145Z,2.73
2018-11-02T14:39:45.650Z,3.40
2018-11-02T14:42:14.352Z,2.70
2018-11-02T14:44:42.839Z,2.73
2018-11-02T14:47:11.378Z,3.30
2018-11-02T14:49:39.934Z,2.50
2018-11-02T14:52:08.550Z,2.70
2018-11-02T14:54:37.138Z,2.40
2018-11-02T14:57:06.166Z,2.60
2018-11-02T14:59:34.781Z,2.50
2018-11-02T15:02:03.292Z,2.17
2018-11-02T15:04:31.866Z,2.40
2018-11-02T15:07:00.486Z,2.47
2018-11-02T15:09:29.060Z,2.70
2018-11-02T15:11:57.635Z,2.83
2018-11-02T15:14:26.111Z,3.10
2018-11-02T15:16:54.655Z,3.13
2018-11-02T15:19:23.224Z,3.13
2018-11-02T15:21:51.991Z,2.70
2018-11-02T15:24:20.558Z,2.57
2018-11-02T15:26:49.064Z,2.23
2018-11-02T15:29:17.613Z,2.57
2018-11-02T15:31:46.090Z,2.47
2018-11-02T15:34:14.655Z,2.50
2018-11-02T15:36:43.213Z,2.40
2018-11-02T15:39:12.994Z,2.53
2018-11-02T15:41:54.132Z,2.10
2018-11-02T15:44:23.013Z,2.53
2018-11-02T15:46:51.458Z,2.20
2018-11-02T15:49:31.672Z,2.33
2018-11-02T15:52:00.321Z,2.70
2018-11-02T15:54:33.006Z,2.77
2018-11-02T16:00:02.247Z,3.40
2018-11-02T16:02:30.905Z,3.70
2018-11-02T16:04:59.608Z,3.60
2018-11-02T16:07:28.283Z,4.00
2018-11-02T16:09:56.793Z,3.95
2018-11-02T16:12:25.910Z,3.75
2018-11-02T16:15:06.683Z,4.05
2018-11-02T16:17:35.821Z,3.62
2018-11-02T16:20:04.666Z,3.35
2018-11-02T16:26:49.913Z,4.25
2018-11-02T16:29:18.486Z,3.83
2018-11-02T16:32:14.693Z,3.13
2018-11-02T16:34:43.454Z,3.72
2018-11-02T16:37:19.929Z,4.50
2018-11-02T16:39:49.743Z,4.62
2018-11-02T16:42:18.342Z,3.95
2018-11-02T16:44:46.996Z,4.78
2018-11-02T16:47:15.494Z,5.87
2018-11-02T16:49:44.190Z,5.17
2018-11-02T16:52:12.735Z,4.80
2018-11-02T16:54:41.476Z,4.05
2018-11-02T16:57:09.987Z,4.22
2018-11-02T16:59:38.599Z,4.53
2018-11-02T17:02:07.214Z,4.33
2018-11-02T17:04:36.111Z,4.70
2018-11-02T17:07:04.663Z,4.83
2018-11-02T17:09:33.257Z,5.00
2018-11-02T17:12:01.991Z,4.80
2018-11-02T17:14:30.806Z,4.53
2018-11-02T17:16:59.419Z,4.58
2018-11-02T17:19:27.923Z,4.42
2018-11-02T17:21:56.514Z,5.17
2018-11-02T17:24:25.103Z,4.75
2018-11-02T17:26:53.947Z,4.80
2018-11-02T17:29:22.503Z,4.65
2018-11-02T17:31:51.024Z,4.47
2018-11-02T17:34:19.646Z,4.00
2018-11-02T17:36:48.170Z,4.22
2018-11-02T17:39:16.865Z,4.62
2018-11-02T17:41:45.671Z,4.05
2018-11-02T17:44:14.236Z,4.53
2018-11-02T17:46:47.024Z,4.20
2018-11-02T17:49:15.720Z,4.50
2018-11-02T17:51:44.251Z,4.92
2018-11-02T17:54:12.975Z,5.30
2018-11-02T17:56:41.530Z,4.40
2018-11-02T17:59:10.394Z,4.50
2018-11-02T18:01:38.899Z,5.28
2018-11-02T18:04:07.548Z,4.22
2018-11-02T18:06:36.157Z,4.17
2018-11-02T18:09:06.902Z,4.30
2018-11-02T18:11:35.642Z,4.08
2018-11-02T18:14:04.312Z,4.20
2018-11-02T18:16:33.492Z,4.08
2018-11-02T18:19:02.228Z,4.67
2018-11-02T18:21:30.879Z,4.53
2018-11-02T18:23:59.555Z,3.95
2018-11-02T18:26:28.335Z,5.03
2018-11-02T18:28:57.438Z,3.85
2018-11-02T18:31:26.063Z,4.60
2018-11-02T18:33:54.661Z,4.37
2018-11-02T18:36:23.234Z,4.22
2018-11-02T18:38:51.903Z,4.47
2018-11-02T18:41:20.488Z,4.25
2018-11-02T18:43:49.141Z,4.45
2018-11-02T18:46:17.859Z,5.00
2018-11-02T18:48:46.476Z,5.28
2018-11-02T18:51:15.105Z,5.30
2018-11-02T18:53:43.790Z,4.42
2018-11-02T18:56:12.392Z,5.15
2018-11-02T18:58:41.066Z,4.85
2018-11-02T19:01:09.848Z,5.30
2018-11-02T19:03:38.455Z,5.60
2018-11-02T19:06:07.100Z,5.47
2018-11-02T19:08:35.778Z,6.25
2018-11-02T19:11:04.440Z,6.17
2018-11-02T19:13:33.216Z,6.40
2018-11-02T19:16:01.694Z,7.15
2018-11-02T19:18:30.251Z,6.78
2018-11-02T19:20:58.819Z,7.53
2018-11-02T19:23:27.497Z,7.30
2018-11-02T19:25:56.149Z,7.10
2018-11-02T19:28:24.740Z,7.22
2018-11-02T19:30:53.388Z,7.53
2018-11-02T19:33:22.012Z,8.00
2018-11-02T19:35:50.659Z,7.62
2018-11-02T19:38:19.239Z,7.47
2018-11-02T19:40:48.003Z,7.75
2018-11-02T19:43:16.543Z,7.42
2018-11-02T19:45:45.203Z,7.40
2018-11-02T19:48:13.821Z,7.62
2018-11-02T19:50:42.502Z,8.63
2018-11-02T19:53:11.071Z,7.65
2018-11-02T19:55:39.797Z,9.03
2018-11-02T19:58:08.490Z,7.40
2018-11-02T20:00:37.091Z,8.55
2018-11-02T20:03:05.727Z,8.40
2018-11-02T20:05:34.348Z,8.20
2018-11-02T20:08:02.922Z,7.95
2018-11-02T20:10:31.490Z,8.00
2018-11-02T20:13:00.248Z,7.72
2018-11-02T20:15:28.782Z,7.65
2018-11-02T20:17:57.373Z,7.15
2018-11-02T20:20:25.966Z,6.72
2018-11-02T20:22:54.509Z,7.53
2018-11-02T20:25:23.097Z,6.92
2018-11-02T20:27:51.612Z,5.67
2018-11-02T20:30:22.741Z,6.80
2018-11-02T20:32:51.586Z,6.20
2018-11-02T20:35:20.210Z,6.33
2018-11-02T20:37:48.897Z,6.40
2018-11-02T20:40:18.821Z,6.45
2018-11-02T20:42:47.543Z,7.65
2018-11-02T20:45:16.602Z,5.70
2018-11-02T20:47:47.758Z,5.75
2018-11-02T20:50:16.389Z,5.00
2018-11-02T20:52:44.907Z,6.90
2018-11-02T20:55:14.357Z,8.93
2018-11-02T20:57:43.552Z,6.30
2018-11-02T21:00:14.881Z,5.78
2018-11-02T21:02:44.180Z,5.22
2018-11-02T21:05:13.859Z,5.95
2018-11-02T21:07:43.391Z,5.10
2018-11-02T21:10:13.181Z,8.80
2018-11-02T21:12:41.838Z,5.10
2018-11-02T21:15:15.812Z,5.05
2018-11-02T21:17:44.390Z,4.87
2018-11-02T21:20:14.547Z,3.50
2018-11-02T21:22:43.572Z,3.33
2018-11-02T21:25:12.784Z,3.30
2018-11-02T21:27:42.273Z,3.85
2018-11-02T21:30:14.612Z,3.65
2018-11-02T21:32:43.944Z,4.00
2018-11-02T21:35:12.701Z,3.95
2018-11-02T21:37:41.464Z,3.40
2018-11-02T21:40:12.489Z,3.90
2018-11-02T21:42:41.517Z,3.20
2018-11-02T21:45:10.654Z,3.10
2018-11-02T21:47:39.546Z,3.60
2018-11-02T21:50:09.402Z,3.62
2018-11-02T21:52:38.030Z,3.25
2018-11-02T21:55:06.894Z,3.17
2018-11-02T21:57:35.575Z,3.20
2018-11-02T22:00:04.765Z,3.65
2018-11-02T22:02:33.343Z,3.30
2018-11-02T22:05:02.095Z,3.15
2018-11-02T22:07:30.781Z,3.52
2018-11-02T22:09:59.460Z,3.15
2018-11-02T22:12:28.186Z,3.55
2018-11-02T22:14:56.813Z,3.42
2018-11-02T22:17:25.442Z,3.72
2018-11-02T22:19:54.039Z,3.47
2018-11-02T22:22:22.590Z,3.70
2018-11-02T22:24:51.329Z,3.70
2018-11-02T22:27:19.970Z,3.50
2018-11-02T22:29:48.506Z,3.12
2018-11-02T22:32:17.449Z,3.83
2018-11-02T22:34:46.217Z,3.70
2018-11-02T22:37:14.904Z,4.03
2018-11-02T22:39:43.519Z,4.22
2018-11-02T22:42:12.204Z,4.10
2018-11-02T22:44:40.769Z,4.03
2018-11-02T22:47:09.955Z,4.30
2018-11-02T22:49:38.653Z,4.03
2018-11-02T22:52:07.480Z,4.87
2018-11-02T22:54:36.118Z,4.25
2018-11-02T22:57:04.808Z,3.90
2018-11-02T22:59:33.591Z,3.87
2018-11-02T23:02:02.237Z,3.22
2018-11-02T23:04:30.757Z,4.75
2018-11-02T23:07:00.134Z,5.30
2018-11-02T23:09:28.709Z,6.58
2018-11-02T23:11:57.422Z,4.90
2018-11-02T23:14:26.029Z,5.53
2018-11-02T23:16:54.722Z,4.92
2018-11-02T23:19:23.484Z,4.40
2018-11-02T23:21:52.032Z,4.50
2018-11-02T23:24:20.607Z,5.10
2018-11-02T23:26:49.369Z,4.95
2018-11-02T23:29:18.117Z,5.08
2018-11-02T23:31:46.911Z,4.62
2018-11-02T23:34:15.523Z,4.70
2018-11-02T23:36:44.137Z,5.42
2018-11-02T23:39:12.879Z,4.33
2018-11-02T23:41:41.681Z,5.00
2018-11-02T23:44:10.246Z,4.55
2018-11-02T23:46:38.805Z,5.37
2018-11-02T23:49:07.623Z,5.15
2018-11-02T23:51:36.181Z,6.40
2018-11-02T23:54:06.331Z,5.50
2018-11-02T23:56:34.972Z,5.47
2018-11-02T23:59:03.524Z,5.47
